To NAV CANADA Home Page Login to a new session Search on AWWS site Disclaimer Vers la page française équivalente Tips FAQ What's new on the site To the Forecasts and Observations / NOTAM section To "File a Flight Plan" website Publications and other links Update of the User's profile FIC Telephone Numbers My Weather Data Folder Route Weather Data Regional Weather Data Local Weather Data To the Forecasts and Observations / NOTAM section
Request Generated 11/13/2018 at 18:04:18 UTC . Weather information available at that time is displayed.

METAR/TAF

PICKLE LAKE/ON    

METAR CYPL 131800Z 30006KT 240V340 2SM -SHSN BLSN OVC026 M13/M17 A3019 RMK SC8 SLP263=
SPECI CYPL 131732Z 34005G15KT 240V030 1 1/4SM -SHSN BLSN OVC031 M13/M18 A3019 RMK BLSN3SC5 SLP262=
METAR CYPL 131700Z 30010G19KT 250V340 6SM -SHSN BLSN BKN040 BKN050 M13/M19 A3019 RMK CU5SC1 SLP262=
METAR CYPL 131600Z 29008KT 230V330 10SM -SN FEW021 OVC041 M13/M18 A3018 RMK CF1SC7 SLP262=

TAF AMD CYPL 131751Z 1317/1401 34010G20KT 6SM -SN OVC030 TEMPO
1317/1401 11/2SM -SHSN BLSN OVC020
RMK NXT FCST BY 132000Z=
Your time UTC time
Weather data provided by Environment Canada and NAV CANADA